Time;durP1;ratioP1;P1;durP2;ratioP2;P2;SDS_P1;SDS_P2;PMS_P1;PMS_P2;Temp;Humidity;BMP_temperature;BMP_pressure;BME280_temperature;BME280_humidity;BME280_pressure;Samples;Min_cycle;Max_cycle;Signal;HPM_P1;HPM_P2
2024/04/05 06:33:34;;;;;;;;;;;;;;;;;;12957852;22;20019;-84
2024/04/05 07:01:56;;;;;;;5.38;2.03;;;;;;;;;;12955437;22;20065;-83
2024/04/05 07:07:08;;;;;;;5.38;1.85;;;;;;;;;;12971582;22;20014;-86
2024/04/05 07:49:56;;;;;;;3.42;1.70;;;;;;;;;;10587206;28;20031;-83
2024/04/05 07:54:57;;;;;;;6.28;1.77;;;;;;;;;;10586340;28;20046;-83
2024/04/05 07:59:58;;;;;;;7.88;1.73;;;;;;;;;;10593433;28;20102;-82
2024/04/05 08:05:00;;;;;;;6.25;2.30;;;;;;;;;;10610622;28;20054;-82
2024/04/05 08:10:01;;;;;;;5.90;1.83;;;;;;;;;;10612496;28;20027;-83
2024/04/05 08:15:04;;;;;;;7.38;3.08;;;;;;;;;;10619021;28;20031;-82
2024/04/05 08:20:07;;;;;;;4.15;1.83;;;;;;;;;;10621479;28;20459;-82
2024/04/05 08:25:08;;;;;;;5.50;1.92;;;;;;;;;;10603817;27;20089;-83
2024/04/05 08:30:12;;;;;;;4.85;1.85;;;;;;;;;;10597857;28;20034;-82
2024/04/05 08:35:16;;;;;;;4.15;1.40;;;;;;;;;;10597146;28;20004;-83
2024/04/05 08:40:18;;;;;;;5.53;1.90;;;;;;;;;;10596144;28;20023;-83
2024/04/05 08:45:19;;;;;;;5.47;1.73;;;;;;;;;;10598525;28;20031;-80
2024/04/05 08:50:21;;;;;;;5.50;1.83;;;;;;;;;;10594950;28;20085;-81
2024/04/05 08:55:23;;;;;;;6.22;1.90;;;;;;;;;;10575738;28;20020;-84
2024/04/05 09:00:33;;;;;;;4.28;1.60;;;;;;;;;;10595883;28;20081;-83
2024/04/05 09:34:08;;;;;;;5.35;2.15;;;;;;;;;;10632236;22;20064;-79
2024/04/05 09:39:18;;;;;;;10.68;2.17;;;;;;;;;;10513397;28;20031;-78
2024/04/05 09:44:19;;;;;;;6.35;2.00;;;;;;;;;;10490101;28;20031;-78
2024/04/05 09:49:20;;;;;;;4.20;1.75;;;;;;;;;;10491984;28;20024;-79
2024/04/05 09:54:22;;;;;;;5.85;1.40;;;;;;;;;;10490224;28;20119;-79
2024/04/05 09:59:25;;;;;;;3.45;1.45;;;;;;;;;;10491615;28;20047;-78
2024/04/05 10:04:26;;;;;;;7.22;1.80;;;;;;;;;;10490511;28;20575;-79
2024/04/05 10:09:33;;;;;;;4.50;1.77;;;;;;;;;;10491616;28;20127;-79
2024/04/05 10:14:36;;;;;;;3.92;1.30;;;;;;;;;;10509521;28;20108;-81
2024/04/05 10:19:37;;;;;;;5.03;1.80;;;;;;;;;;10510804;28;20529;-79
2024/04/05 10:24:39;;;;;;;4.22;2.13;;;;;;;;;;10510739;28;20024;-79
2024/04/05 10:29:40;;;;;;;3.72;1.70;;;;;;;;;;10496111;28;20052;-79
2024/04/05 10:34:41;;;;;;;5.47;1.98;;;;;;;;;;10494630;28;20082;-78
2024/04/05 10:39:42;;;;;;;4.20;1.55;;;;;;;;;;10495949;28;20025;-78
2024/04/05 10:44:53;;;;;;;3.88;1.27;;;;;;;;;;10494511;28;20092;-79
2024/04/05 10:49:59;;;;;;;2.17;1.20;;;;;;;;;;10495847;28;20118;-79
2024/04/05 10:55:10;;;;;;;3.45;1.40;;;;;;;;;;10494686;28;20020;-79
2024/04/05 11:00:11;;;;;;;3.78;1.45;;;;;;;;;;10494792;28;20130;-79
2024/04/05 11:05:13;;;;;;;3.67;1.40;;;;;;;;;;10493271;28;20025;-78
2024/04/05 11:10:14;;;;;;;3.55;1.30;;;;;;;;;;10493896;28;20024;-78
2024/04/05 11:15:19;;;;;;;4.10;1.60;;;;;;;;;;10493224;28;20110;-79
2024/04/05 11:20:20;;;;;;;3.25;1.17;;;;;;;;;;10492556;28;20036;-79
2024/04/05 11:25:22;;;;;;;2.75;1.30;;;;;;;;;;10492103;28;20028;-79
2024/04/05 11:30:24;;;;;;;2.53;1.30;;;;;;;;;;10489179;28;20063;-79
2024/04/05 11:35:25;;;;;;;3.42;1.27;;;;;;;;;;10491494;28;20376;-79
2024/04/05 11:40:26;;;;;;;2.83;1.13;;;;;;;;;;10490657;28;20096;-77
2024/04/05 11:45:27;;;;;;;3.25;1.35;;;;;;;;;;10493322;28;20063;-77
2024/04/05 11:50:30;;;;;;;5.32;1.70;;;;;;;;;;10492059;28;20024;-79
2024/04/05 11:55:31;;;;;;;4.00;1.83;;;;;;;;;;10491809;28;20031;-79
2024/04/05 12:00:32;;;;;;;3.88;1.38;;;;;;;;;;10496349;28;20064;-79
2024/04/05 12:05:34;;;;;;;4.40;1.50;;;;;;;;;;10497851;28;20169;-79
2024/04/05 12:10:35;;;;;;;2.92;1.33;;;;;;;;;;10520529;28;20013;-79
2024/04/05 12:15:40;;;;;;;6.40;1.67;;;;;;;;;;10531243;28;20079;-80
2024/04/05 12:20:46;;;;;;;3.22;1.48;;;;;;;;;;10493791;28;20074;-79
2024/04/05 12:25:55;;;;;;;5.47;1.65;;;;;;;;;;10494219;28;20055;-80
2024/04/05 12:30:56;;;;;;;4.65;1.70;;;;;;;;;;10514817;28;20028;-81
2024/04/05 12:36:03;;;;;;;3.00;1.25;;;;;;;;;;10516082;28;20028;-78
2024/04/05 12:41:04;;;;;;;5.00;1.52;;;;;;;;;;10518536;28;20029;-79
2024/04/05 12:46:06;;;;;;;3.45;1.55;;;;;;;;;;10498077;28;20051;-78
2024/04/05 12:51:07;;;;;;;2.15;1.30;;;;;;;;;;10507224;28;20028;-77
2024/04/05 12:56:08;;;;;;;2.80;1.30;;;;;;;;;;10535556;28;20027;-78
2024/04/05 13:01:10;;;;;;;2.42;1.15;;;;;;;;;;10500154;28;20060;-79
2024/04/05 13:06:12;;;;;;;6.38;1.92;;;;;;;;;;10513943;28;20487;-79
2024/04/05 13:11:15;;;;;;;3.72;1.02;;;;;;;;;;10512376;28;20024;-78
2024/04/05 13:16:16;;;;;;;2.78;1.38;;;;;;;;;;10495484;28;20032;-79
2024/04/05 13:21:17;;;;;;;4.95;1.20;;;;;;;;;;10495788;28;20028;-79
2024/04/05 13:26:19;;;;;;;3.67;1.52;;;;;;;;;;10514249;28;20028;-78
2024/04/05 13:31:26;;;;;;;2.75;1.40;;;;;;;;;;10513728;28;20032;-78
2024/04/05 13:36:27;;;;;;;2.45;1.10;;;;;;;;;;10496613;28;20036;-78
2024/04/05 13:41:28;;;;;;;2.60;1.30;;;;;;;;;;10498267;28;20024;-78
2024/04/05 13:46:30;;;;;;;1.33;0.90;;;;;;;;;;10510440;28;20024;-79
2024/04/05 13:51:31;;;;;;;3.28;1.17;;;;;;;;;;10493259;28;20024;-79
2024/04/05 13:56:33;;;;;;;1.95;1.42;;;;;;;;;;10490925;28;20020;-79
2024/04/05 14:01:34;;;;;;;2.60;1.38;;;;;;;;;;10516146;28;20041;-78
2024/04/05 14:06:35;;;;;;;1.52;0.90;;;;;;;;;;10496545;28;20021;-78
2024/04/05 14:11:36;;;;;;;3.42;1.80;;;;;;;;;;10498023;28;20117;-79
2024/04/05 14:16:37;;;;;;;3.33;1.25;;;;;;;;;;10498825;28;20028;-79
2024/04/05 14:21:38;;;;;;;2.28;1.08;;;;;;;;;;10503258;28;20025;-77
2024/04/05 14:26:39;;;;;;;3.97;1.20;;;;;;;;;;10507128;28;20028;-78
2024/04/05 14:31:41;;;;;;;2.97;0.98;;;;;;;;;;10508215;28;20029;-78
2024/04/05 14:36:52;;;;;;;3.13;1.60;;;;;;;;;;10506905;28;20496;-79
2024/04/05 14:41:53;;;;;;;1.70;0.90;;;;;;;;;;10488414;28;20036;-79
2024/04/05 14:46:54;;;;;;;3.05;1.58;;;;;;;;;;10489062;28;20124;-78
2024/04/05 14:51:55;;;;;;;3.10;1.27;;;;;;;;;;10488903;28;20054;-79
2024/04/05 14:56:57;;;;;;;3.92;2.45;;;;;;;;;;10505464;28;20107;-79
2024/04/05 15:01:58;;;;;;;2.42;1.13;;;;;;;;;;10488299;28;20029;-78
2024/04/05 15:07:02;;;;;;;3.17;1.40;;;;;;;;;;10488087;28;20031;-77
2024/04/05 15:12:04;;;;;;;4.63;1.50;;;;;;;;;;10494495;28;20032;-77
2024/04/05 15:17:27;;;;;;;3.55;2.15;;;;;;;;;;10506451;28;20031;-78
2024/04/05 15:22:28;;;;;;;3.20;1.50;;;;;;;;;;10486444;28;20031;-79
2024/04/05 15:27:29;;;;;;;2.65;1.17;;;;;;;;;;10506291;28;20089;-79
2024/04/05 15:32:30;;;;;;;2.13;1.40;;;;;;;;;;10487352;28;20024;-78
2024/04/05 15:37:32;;;;;;;2.75;1.20;;;;;;;;;;10517988;28;20039;-83
2024/04/05 15:42:33;;;;;;;2.08;1.35;;;;;;;;;;10519915;28;20017;-83
2024/04/05 15:47:34;;;;;;;3.42;1.70;;;;;;;;;;10534393;28;20025;-83
2024/04/05 15:52:35;;;;;;;2.38;1.20;;;;;;;;;;10519493;28;20056;-84
2024/04/05 15:57:37;;;;;;;2.42;1.20;;;;;;;;;;10509674;28;20103;-83
2024/04/05 16:02:38;;;;;;;2.10;1.15;;;;;;;;;;10511699;28;20039;-81
2024/04/05 16:07:39;;;;;;;2.20;1.30;;;;;;;;;;10521993;28;20476;-83
2024/04/05 16:12:40;;;;;;;2.60;1.20;;;;;;;;;;10538060;28;20039;-81
2024/04/05 16:17:45;;;;;;;3.00;1.13;;;;;;;;;;10525129;28;20480;-82
2024/04/05 16:22:46;;;;;;;3.13;1.10;;;;;;;;;;10511800;28;20036;-81
2024/04/05 16:27:48;;;;;;;3.28;1.60;;;;;;;;;;10512172;28;20127;-83
2024/04/05 16:32:49;;;;;;;4.03;1.10;;;;;;;;;;10494709;28;20031;-82
2024/04/05 16:37:51;;;;;;;3.05;1.17;;;;;;;;;;10493621;28;20028;-83
2024/04/05 16:42:54;;;;;;;2.63;1.40;;;;;;;;;;10496631;28;20048;-84
2024/04/05 16:47:55;;;;;;;4.38;1.83;;;;;;;;;;10514083;28;20024;-83
2024/04/05 16:52:56;;;;;;;3.78;2.22;;;;;;;;;;10495497;28;20032;-83
2024/04/05 16:57:58;;;;;;;2.75;1.40;;;;;;;;;;10495389;28;20486;-83
2024/04/05 17:03:00;;;;;;;3.58;1.75;;;;;;;;;;10495511;28;20025;-83
2024/04/05 17:08:07;;;;;;;3.08;1.45;;;;;;;;;;10513163;28;20505;-83
2024/04/05 17:13:09;;;;;;;3.28;1.60;;;;;;;;;;10513918;28;20104;-83
2024/04/05 17:18:10;;;;;;;2.90;1.67;;;;;;;;;;10513669;28;20024;-83
2024/04/05 17:23:11;;;;;;;2.10;1.10;;;;;;;;;;10496879;28;20075;-83
2024/04/05 17:28:12;;;;;;;3.20;1.50;;;;;;;;;;10544225;28;20058;-83
2024/04/05 17:33:13;;;;;;;3.10;1.17;;;;;;;;;;10507067;28;20086;-84
2024/04/05 17:38:15;;;;;;;3.15;1.50;;;;;;;;;;10510487;28;20039;-83
2024/04/05 17:43:16;;;;;;;2.95;1.20;;;;;;;;;;10493342;28;20020;-83
2024/04/05 17:48:17;;;;;;;1.92;1.27;;;;;;;;;;10492701;28;20035;-83
2024/04/05 17:53:19;;;;;;;3.35;1.63;;;;;;;;;;10492856;28;20551;-83
2024/04/05 17:58:21;;;;;;;2.75;1.30;;;;;;;;;;10494132;28;20383;-84
2024/04/05 18:03:22;;;;;;;4.40;1.65;;;;;;;;;;10512515;28;20032;-83
2024/04/05 18:08:23;;;;;;;4.03;1.35;;;;;;;;;;10506425;28;20028;-83
2024/04/05 18:13:24;;;;;;;2.42;1.30;;;;;;;;;;10486433;28;20119;-83
2024/04/05 18:18:25;;;;;;;5.10;1.55;;;;;;;;;;10487514;28;20107;-83
2024/04/05 18:23:26;;;;;;;1.30;1.00;;;;;;;;;;10485806;28;20124;-83
2024/04/05 18:28:27;;;;;;;5.55;1.90;;;;;;;;;;10510301;28;20040;-83
2024/04/05 18:33:30;;;;;;;4.32;1.13;;;;;;;;;;10516025;28;20033;-82
2024/04/05 18:38:31;;;;;;;3.38;1.60;;;;;;;;;;10531501;28;20032;-83
2024/04/05 18:43:32;;;;;;;3.38;1.67;;;;;;;;;;10489653;28;20051;-84
2024/04/05 18:48:35;;;;;;;2.58;1.35;;;;;;;;;;10509209;28;20029;-84
2024/04/05 18:53:40;;;;;;;4.13;1.67;;;;;;;;;;10510720;28;20024;-84
2024/04/05 18:58:41;;;;;;;3.30;1.65;;;;;;;;;;10510937;28;20024;-84
2024/04/05 19:03:46;;;;;;;2.65;1.40;;;;;;;;;;10533152;28;20037;-84
